Latest Weather Observations for Stenhouse Bay

IDS60801

Issued at 7:31 pm CST Tuesday 28 July 2015 (issued every 30 minutes, with the page automatically refreshed every 10 minutes)

About weather observations | Map of weather stations | Latest weather observations for SA | Other Formats
Station Details ID: 022049 Name: STENHOUSE BAY Lat: -35.28 Lon: 136.94 Height: 42.0 m
Data from the previous 72 hours. | See also: Recent months at Stenhouse Bay
Date/Time
CST
Temp
°C
App
Temp
°C
Dew
Point
Rel
Hum
%
Delta-T
°C
Wind Press
QNH
hPa
Press
MSL
hPa
Rain
since 9 am
mm
Dir
 
Spd
km/h
Gust
km/h
Spd
kts
Gust
kts
28/07:30pm 7.5 4.8 5.8 89 0.8 N 9 11 5 6 1033.9 1033.9 0.0
28/07:00pm 7.8 5.5 5.8 87 0.9 NNW 7 9 4 5 1034.0 1034.0 0.0
28/06:30pm 8.5 5.5 6.0 84 1.1 NNW 11 13 6 7 1033.8 1033.8 0.0
28/06:00pm 9.2 6.2 6.1 81 1.4 NNW 11 13 6 7 1033.7 1033.7 0.0
28/05:30pm 10.3 7.4 6.5 77 1.8 NNW 11 15 6 8 1033.6 1033.6 0.0
28/05:00pm 11.0 7.3 6.4 73 2.2 NNW 15 19 8 10 1033.8 1033.8 0.0
28/04:30pm 12.2 8.2 6.5 68 2.7 NNW 17 20 9 11 1034.1 1034.1 0.0
28/04:00pm 13.4 9.8 6.7 64 3.2 NW 15 22 8 12 1034.3 1034.3 0.0
28/03:30pm 14.2 10.7 7.0 62 3.5 NNW 15 19 8 10 1034.1 1034.1 0.0
28/03:00pm 14.0 10.4 6.6 61 3.5 NW 15 22 8 12 1034.4 1034.4 0.0
28/02:30pm 13.2 9.2 6.8 65 3.1 NNW 17 22 9 12 1034.3 1034.3 0.0
28/02:00pm 13.6 9.6 6.7 63 3.3 NNW 17 24 9 13 1034.5 1034.5 0.0
28/01:30pm 13.5 9.2 6.8 64 3.2 NNW 19 24 10 13 1034.6 1034.6 0.0
28/01:00pm 14.9 10.8 7.9 63 3.5 NNW 19 26 10 14 1035.0 1035.0 0.0
28/12:30pm 15.4 11.9 8.9 65 3.3 NNW 17 22 9 12 1035.8 1035.8 0.0
28/12:00pm 14.1 10.5 8.3 68 2.9 NNW 17 26 9 14 1036.3 1036.3 0.0
28/11:30am 12.8 9.1 7.9 72 2.4 NW 17 22 9 12 1036.8 1036.8 0.0
28/11:00am 12.2 10.3 8.9 80 1.7 NW 9 17 5 9 1037.2 1037.2 0.0
28/10:30am 12.7 11.5 10.2 85 1.3 NNW 7 9 4 5 1037.3 1037.3 0.0
28/10:00am 11.5 10.5 10.4 93 0.6 NNW 6 9 3 5 1037.2 1037.2 0.0
28/09:30am 11.4 9.4 10.3 93 0.6 NNW 11 15 6 8 1037.1 1037.1 0.0
28/09:00am 10.7 8.8 10.4 98 0.2 NNW 11 15 6 8 1036.9 1036.9 1.2
28/08:30am 9.4 7.6 9.3 99 0.0 NNW 9 11 5 6 1036.9 1036.9 1.0
28/08:00am 7.6 5.7 7.5 99 0.0 NNW 7 11 4 6 1036.4 1036.4 1.0
28/07:30am 7.1 5.3 7.0 99 0.0 NNW 6 9 3 5 1036.4 1036.4 1.0
28/07:00am 7.2 5.7 6.9 98 0.1 N 4 6 2 3 1036.4 1036.4 1.0
28/06:30am 8.1 6.5 8.0 99 0.0 NNW 6 7 3 4 1036.5 1036.5 1.0
28/06:00am 8.6 6.6 8.5 99 0.0 NW 9 13 5 7 1036.6 1036.6 1.0
28/05:30am 8.1 6.2 7.5 96 0.3 NNW 7 11 4 6 1036.3 1036.3 1.0
28/05:00am 8.3 6.6 7.5 95 0.4 NNW 6 11 3 6 1036.2 1036.2 1.0
28/04:30am 8.4 6.7 7.5 94 0.4 W 6 11 3 6 1035.8 1035.8 1.0
28/04:00am 8.4 6.5 7.5 94 0.4 NW 7 9 4 5 1035.7 1035.7 1.0
28/03:30am 8.9 7.6 7.8 93 0.5 NNW 4 4 2 2 1035.7 1035.7 1.0
28/03:00am 8.9 7.7 8.1 95 0.4 WNW 4 4 2 2 1035.8 1035.8 1.0
28/02:30am 8.7 6.1 7.8 94 0.4 WNW 11 13 6 7 1035.9 1035.9 1.0
28/02:00am 9.6 8.6 9.0 96 0.3 WNW 4 6 2 3 1035.8 1035.8 1.0
28/01:30am 9.4 7.3 8.3 93 0.5 WSW 9 13 5 7 1035.7 1035.7 0.8
28/01:00am 9.2 6.3 8.3 94 0.4 WNW 13 17 7 9 1035.8 1035.8 0.8
28/12:30am 9.2 7.1 8.1 93 0.5 W 9 11 5 6 1035.8 1035.8 0.8
28/12:00am 8.6 5.7 8.0 96 0.3 W 13 15 7 8 1035.9 1035.9 0.8
 
Date/Time
CST
Temp
°C
App
Temp
°C
Dew
Point
Rel
Hum
%
Delta-T
°C
Wind Press
QNH
hPa
Press
MSL
hPa
Rain
since 9 am
mm
Dir
 
Spd
km/h
Gust
km/h
Spd
kts
Gust
kts
27/11:30pm 8.5 5.0 7.4 93 0.5 W 15 17 8 9 1035.9 1035.9 0.8
27/11:00pm 8.3 5.6 7.2 93 0.5 WNW 11 13 6 7 1035.8 1035.8 0.8
27/10:30pm 9.2 6.0 8.3 94 0.4 W 15 19 8 10 1035.9 1035.9 0.8
27/10:00pm 9.6 7.9 8.2 91 0.7 W 7 13 4 7 1035.9 1035.9 0.8
27/09:30pm 9.7 6.5 8.3 91 0.7 W 15 20 8 11 1035.9 1035.9 0.6
27/09:00pm 9.6 6.2 7.7 88 0.9 WSW 15 24 8 13 1035.9 1035.9 0.4
27/08:30pm 9.1 6.2 6.7 85 1.1 WSW 11 15 6 8 1035.8 1035.8 0.4
27/08:00pm 8.9 6.9 7.0 88 0.9 W 7 11 4 6 1035.8 1035.8 0.4
27/07:30pm 9.7 7.9 8.0 89 0.8 WSW 7 11 4 6 1035.6 1035.6 0.4
27/07:00pm 9.2 6.8 6.8 85 1.1 WSW 9 11 5 6 1035.4 1035.4 0.4
27/06:30pm 9.6 5.8 7.4 86 1.0 W 17 24 9 13 1035.2 1035.2 0.4
27/06:00pm 10.1 7.4 7.2 82 1.4 WSW 11 15 6 8 1035.0 1035.0 0.4
27/05:30pm 10.6 6.5 7.8 83 1.3 WSW 19 28 10 15 1035.0 1035.0 0.4
27/05:00pm 11.2 8.4 6.9 75 2.0 W 11 15 6 8 1034.8 1034.8 0.4
27/04:30pm 11.7 7.6 6.0 68 2.6 WSW 17 24 9 13 1034.5 1034.5 0.4
27/04:00pm 11.7 8.0 6.2 69 2.6 WSW 15 20 8 11 1034.5 1034.5 0.4
27/03:30pm 12.1 7.6 6.2 67 2.8 WSW 19 26 10 14 1034.5 1034.5 0.4
27/03:00pm 11.9 10.2 7.6 75 2.1 WNW 6 11 3 6 1034.4 1034.4 0.4
27/02:30pm 12.2 9.2 7.5 73 2.3 WSW 13 19 7 10 1034.4 1034.4 0.4
27/02:00pm 13.2 9.5 7.9 70 2.6 SW 17 26 9 14 1034.3 1034.3 0.4
27/01:30pm 12.5 9.0 7.0 69 2.6 WSW 15 22 8 12 1034.5 1034.5 0.4
27/01:00pm 12.2 8.3 7.1 71 2.5 WSW 17 22 9 12 1034.5 1034.5 0.4
27/12:30pm 12.3 8.5 7.4 72 2.4 WSW 17 24 9 13 1034.5 1034.5 0.4
27/12:00pm 11.7 10.1 7.8 77 1.9 WSW 6 11 3 6 1034.9 1034.9 0.4
27/11:30am 11.0 8.2 8.6 85 1.2 SSW 13 24 7 13 1035.3 1035.3 0.4
27/11:00am 10.4 7.7 8.8 90 0.8 S 13 19 7 10 1035.3 1035.3 0.4
27/10:30am 10.4 8.3 8.3 87 1.0 SW 9 19 5 10 1035.2 1035.2 0.4
27/10:00am 11.5 8.2 8.0 79 1.7 W 15 22 8 12 1035.0 1035.0 0.0
27/09:30am 11.6 8.4 6.7 72 2.3 SW 13 20 7 11 1034.6 1034.6 0.0
27/09:00am 11.0 7.9 7.3 78 1.8 SSW 13 19 7 10 1034.4 1034.4 2.0
27/08:30am 10.2 6.9 6.4 77 1.8 SW 13 19 7 10 1034.0 1034.0 2.0
27/08:00am 9.1 7.2 6.9 86 1.0 W 6 11 3 6 1033.7 1033.7 2.0
27/07:36am 9.7 6.2 7.1 84 1.2 WSW 15 35 8 19 1033.5 1033.5 1.8
27/07:30am 9.3 7.6 7.4 88 0.9 SW 6 9 3 5 1033.3 1033.3 1.8
27/07:00am 9.9 6.9 7.5 85 1.1 SW 13 24 7 13 1033.1 1033.1 1.8
27/06:30am 10.5 6.9 6.8 78 1.7 SSW 15 20 8 11 1032.6 1032.6 1.8
27/06:00am 10.1 6.7 5.7 74 2.0 SW 13 20 7 11 1032.2 1032.2 1.8
27/05:30am 9.6 5.4 5.8 77 1.7 SW 17 22 9 12 1032.0 1032.0 1.8
27/05:00am 10.0 7.2 6.9 81 1.5 SW 11 19 6 10 1031.7 1031.7 1.8
27/04:30am 9.6 5.1 6.1 79 1.6 SSW 19 24 10 13 1031.5 1031.5 1.8
27/04:00am 9.2 3.4 8.1 93 0.5 SSW 28 37 15 20 1031.5 1031.5 1.8
27/03:57am 9.4 3.7 8.2 92 0.6 SSW 28 37 15 20 1031.5 1031.5 1.6
27/03:30am 8.2 6.0 6.0 86 1.0 W 7 11 4 6 1031.4 1031.4 1.6
27/03:00am 9.1 4.2 6.9 86 1.0 SW 22 35 12 19 1031.3 1031.3 1.6
27/02:30am 9.8 6.4 6.0 77 1.7 SSW 13 19 7 10 1031.1 1031.1 1.6
27/02:00am 9.7 5.2 6.2 79 1.6 S 19 22 10 12 1031.1 1031.1 1.6
27/01:30am 9.1 5.8 6.5 84 1.2 S 13 17 7 9 1031.1 1031.1 1.6
27/01:00am 9.2 4.4 7.2 87 0.9 S 22 28 12 15 1031.0 1031.0 1.6
27/12:30am 9.6 7.1 6.5 81 1.4 SSW 9 15 5 8 1030.7 1030.7 1.4
27/12:00am 9.1 5.3 5.7 79 1.5 SW 15 24 8 13 1030.8 1030.8 1.4
 
Date/Time
CST
Temp
°C
App
Temp
°C
Dew
Point
Rel
Hum
%
Delta-T
°C
Wind Press
QNH
hPa
Press
MSL
hPa
Rain
since 9 am
mm
Dir
 
Spd
km/h
Gust
km/h
Spd
kts
Gust
kts
26/11:30pm 9.3 5.2 6.0 80 1.5 S 17 26 9 14 1030.5 1030.5 1.4
26/11:00pm 9.2 3.6 7.3 88 0.9 S 26 35 14 19 1030.4 1030.4 1.4
26/10:30pm 9.3 5.1 7.3 87 0.9 SSW 19 32 10 17 1030.3 1030.3 1.2
26/10:00pm 8.2 6.1 6.8 91 0.6 W 7 11 4 6 1030.1 1030.1 1.2
26/09:30pm 9.9 6.6 6.4 79 1.6 S 13 20 7 11 1029.7 1029.8 0.8
26/09:00pm 10.3 5.1 5.7 73 2.1 SSW 22 30 12 16 1029.3 1029.4 0.8
26/08:30pm 9.7 5.8 7.1 84 1.2 SSW 17 28 9 15 1029.1 1029.2 0.8
26/08:00pm 9.7 5.2 6.2 79 1.6 SSW 19 30 10 16 1028.6 1028.7 0.8
26/07:30pm 9.4 4.9 5.9 79 1.6 WSW 19 30 10 16 1028.4 1028.5 0.6
26/07:00pm 10.5 5.2 5.1 69 2.5 SW 22 33 12 18 1027.8 1027.9 0.4
26/06:30pm 10.4 6.0 6.5 77 1.8 SW 19 33 10 18 1027.5 1027.6 0.4
26/06:00pm 10.4 4.5 5.6 72 2.2 SW 26 37 14 20 1027.1 1027.2 0.4
26/05:30pm 10.6 4.5 4.7 67 2.6 SW 26 37 14 20 1026.6 1026.7 0.4
26/05:00pm 11.0 4.8 4.5 64 2.9 SW 26 41 14 22 1026.1 1026.2 0.4
26/04:30pm 10.8 4.7 4.9 67 2.7 WSW 26 35 14 19 1026.0 1026.1 0.4
26/04:00pm 9.3 3.3 5.5 77 1.7 SW 26 43 14 23 1025.8 1025.9 0.4
26/03:30pm 12.2 5.7 4.9 61 3.3 SW 28 37 15 20 1025.2 1025.3 0.4
26/03:00pm 11.8 5.2 4.1 59 3.4 SW 28 39 15 21 1025.0 1025.1 0.4
26/02:30pm 11.3 6.4 5.0 65 2.9 SW 20 26 11 14 1024.9 1025.0 0.4
26/02:00pm 11.5 5.2 5.8 68 2.7 SW 28 44 15 24 1024.6 1024.7 0.4
26/01:30pm 12.6 6.2 5.3 61 3.4 SW 28 37 15 20 1024.5 1024.6 0.4
26/01:00pm 11.9 6.0 5.8 66 2.9 WSW 26 43 14 23 1024.4 1024.5 0.4
26/12:41pm 12.1 4.6 6.2 67 2.8 SW 35 59 19 32 1024.3 1024.4 0.4
26/12:30pm 11.9 5.7 4.2 59 3.5 SW 26 43 14 23 1024.5 1024.6 0.4
26/12:00pm 10.6 3.7 4.5 66 2.7 WSW 30 48 16 26 1024.8 1024.9 0.4
26/11:43am 10.7 3.6 5.5 70 2.4 SW 32 50 17 27 1024.6 1024.7 0.4
26/11:30am 9.4 2.8 6.1 80 1.5 SW 30 44 16 24 1024.6 1024.7 0.4
26/11:03am 11.6 4.8 5.0 64 3.0 SW 30 50 16 27 1024.4 1024.5 0.0
26/11:00am 12.2 5.8 5.1 62 3.3 SW 28 37 15 20 1024.3 1024.4 0.0
26/10:30am 11.3 4.9 5.2 66 2.8 SW 28 39 15 21 1024.1 1024.1 0.0
26/10:00am 10.4 3.7 5.4 71 2.3 SW 30 52 16 28 1023.5 1023.5 0.0
26/09:56am 11.2 4.7 4.9 65 2.9 SW 28 52 15 28 1023.4 1023.4 0.0
26/09:30am 10.4 3.9 4.5 67 2.6 SW 28 41 15 22 1023.1 1023.1 0.0
26/09:08am 11.2 3.6 5.9 70 2.5 WSW 35 65 19 35 1022.6 1022.6 0.0
26/09:00am 11.3 3.8 3.6 59 3.4 WSW 32 43 17 23 1022.5 1022.5 4.2
26/08:30am 10.6 2.9 3.4 61 3.1 SW 33 46 18 25 1022.1 1022.1 4.2
26/08:00am 10.1 2.4 3.4 63 2.9 SW 33 46 18 25 1021.7 1021.7 4.2
26/07:30am 10.1 1.9 4.9 70 2.3 SW 37 50 20 27 1021.1 1021.1 4.2
26/07:00am 10.3 1.8 3.3 62 3.1 SW 37 52 20 28 1020.6 1020.6 4.2
26/06:30am 10.1 0.7 2.5 59 3.2 WSW 41 56 22 30 1020.0 1020.0 4.2
26/06:16am 10.2 1.2 2.6 59 3.3 WSW 39 57 21 31 1019.8 1019.8 4.2
26/06:00am 10.3 0.5 2.4 58 3.4 SW 43 56 23 30 1019.3 1019.3 4.2
26/05:33am 10.4 2.9 4.3 66 2.7 WSW 33 54 18 29 1018.8 1018.8 4.2
26/05:30am 9.9 2.4 3.6 65 2.7 WSW 32 43 17 23 1018.8 1018.8 4.2
26/05:18am 9.6 1.0 4.8 72 2.2 SW 39 57 21 31 1018.8 1018.8 4.2
26/05:00am 10.7 1.1 3.3 60 3.2 WSW 43 57 23 31 1018.4 1018.4 4.2
26/04:30am 10.6 2.3 4.3 65 2.8 SW 37 54 20 29 1018.2 1018.2 4.2
26/04:03am 9.3 0.4 3.1 65 2.7 WSW 39 59 21 32 1018.1 1018.1 4.2
26/04:00am 9.3 -0.2 3.7 68 2.4 WSW 43 59 23 32 1018.2 1018.2 4.2
26/03:30am 10.3 1.0 3.1 61 3.1 WSW 41 59 22 32 1017.6 1017.6 4.2
26/03:16am 10.6 1.5 4.1 64 2.9 WSW 41 63 22 34 1017.6 1017.6 4.2
26/03:00am 10.5 1.6 3.3 61 3.1 WSW 39 52 21 28 1017.7 1017.7 4.2
26/02:34am 10.1 1.1 4.5 68 2.5 WSW 41 61 22 33 1017.6 1017.6 4.2
26/02:30am 10.0 1.1 5.0 71 2.3 WSW 41 57 22 31 1017.5 1017.5 4.2
26/02:00am 10.1 0.8 5.9 75 1.9 WSW 44 65 24 35 1017.1 1017.1 4.2
26/01:35am 9.7 1.4 4.3 69 2.4 WSW 37 57 20 31 1017.5 1017.5 4.2
26/01:30am 10.4 1.4 4.8 68 2.5 WSW 41 59 22 32 1017.5 1017.5 4.2
26/01:15am 10.6 2.7 4.1 64 2.9 WSW 35 56 19 30 1017.2 1017.2 4.2
26/01:00am 10.6 2.0 4.7 67 2.7 WSW 39 54 21 29 1017.0 1017.0 4.2
26/12:30am 10.0 2.5 6.2 77 1.8 WSW 35 54 19 29 1016.8 1016.8 4.2
26/12:01am 10.6 1.9 6.0 73 2.1 WSW 41 61 22 33 1016.9 1016.9 4.0
26/12:00am 10.8 2.5 6.0 72 2.2 WSW 39 57 21 31 1016.8 1016.8 4.0
 
Date/Time
CST
Temp
°C
App
Temp
°C
Dew
Point
Rel
Hum
%
Delta-T
°C
Wind Press
QNH
hPa
Press
MSL
hPa
Rain
since 9 am
mm
Dir
 
Spd
km/h
Gust
km/h
Spd
kts
Gust
kts
25/11:30pm 10.6 2.0 6.6 76 1.9 WSW 41 59 22 32 1016.5 1016.5 4.0
25/11:00pm 11.0 2.9 5.3 68 2.6 WSW 37 57 20 31 1016.2 1016.2 4.0
25/10:30pm 11.3 2.0 5.2 66 2.8 WSW 43 63 23 34 1015.4 1015.4 4.0
25/10:02pm 11.8 4.3 8.1 78 1.8 WSW 37 59 20 32 1015.6 1015.6 4.0
25/10:00pm 11.8 4.5 7.1 73 2.3 WSW 35 52 19 28 1015.6 1015.6 4.0
25/09:30pm 11.4 3.2 6.7 73 2.2 WSW 39 59 21 32 1015.3 1015.3 4.0
25/09:09pm 11.6 3.7 7.7 77 1.9 WSW 39 63 21 34 1015.0 1015.0 4.0
25/09:00pm 11.5 3.0 8.4 81 1.5 WSW 43 59 23 32 1015.1 1015.1 4.0
25/08:30pm 11.2 3.0 8.4 83 1.4 WSW 41 65 22 35 1014.5 1014.5 4.0
25/08:00pm 11.5 4.9 10.1 91 0.7 WSW 35 57 19 31 1013.9 1013.9 4.0

Other Formats:

Comma delimited format used in spreadsheet applications
http://www.bom.gov.au/fwo/IDS60801/IDS60801.95806.axf

JavaScript Object Notation format (JSON) in row-major order
http://www.bom.gov.au/fwo/IDS60801/IDS60801.95806.json